Time;durP1;ratioP1;P1;durP2;ratioP2;P2;SDS_P1;SDS_P2;PMS_P1;PMS_P2;Temp;Humidity;BMP_temperature;BMP_pressure;BME280_temperature;BME280_humidity;BME280_pressure;Samples;Min_cycle;Max_cycle;Signal;HPM_P1;HPM_P2
2021/10/26 00:01:04;;;;;;;29.73;23.57;;;;;;;;;;6183436;23;20152;-79
2021/10/26 00:03:30;;;;;;;25.63;22.27;;;;;;;;;;6183784;23;20164;-78
2021/10/26 00:05:55;;;;;;;27.00;23.60;;;;;;;;;;6177973;23;20203;-79
2021/10/26 00:08:20;;;;;;;28.50;22.60;;;;;;;;;;6181057;23;20508;-79
2021/10/26 00:10:46;;;;;;;27.93;24.10;;;;;;;;;;6182100;23;20465;-79
2021/10/26 00:13:11;;;;;;;26.33;22.40;;;;;;;;;;6183240;23;20239;-79
2021/10/26 00:15:37;;;;;;;24.80;22.10;;;;;;;;;;6185790;23;20616;-79
2021/10/26 00:18:03;;;;;;;25.77;22.60;;;;;;;;;;6183112;23;20192;-79
2021/10/26 00:20:30;;;;;;;25.93;22.50;;;;;;;;;;6182882;23;20369;-79
2021/10/26 00:22:55;;;;;;;28.93;22.50;;;;;;;;;;6153160;23;20232;-79
2021/10/26 00:25:22;;;;;;;25.80;22.03;;;;;;;;;;6182594;23;20376;-79
2021/10/26 00:27:48;;;;;;;29.73;23.30;;;;;;;;;;6181702;23;20156;-78
2021/10/26 00:30:14;;;;;;;25.13;22.50;;;;;;;;;;6182804;23;20375;-79
2021/10/26 00:32:39;;;;;;;27.30;21.33;;;;;;;;;;6182121;23;20157;-79
2021/10/26 00:35:05;;;;;;;25.57;21.23;;;;;;;;;;6155784;23;20383;-78
2021/10/26 00:37:30;;;;;;;24.70;19.70;;;;;;;;;;6182176;23;20149;-78
2021/10/26 00:39:56;;;;;;;21.80;19.53;;;;;;;;;;6182203;23;20153;-79
2021/10/26 00:42:21;;;;;;;25.80;18.67;;;;;;;;;;6182301;23;20144;-78
2021/10/26 00:44:46;;;;;;;22.83;18.40;;;;;;;;;;6182066;23;20151;-79
2021/10/26 00:47:11;;;;;;;18.73;16.73;;;;;;;;;;6182719;23;20591;-79
2021/10/26 00:49:37;;;;;;;20.93;16.70;;;;;;;;;;6183728;23;20160;-79
2021/10/26 00:52:02;;;;;;;19.37;14.53;;;;;;;;;;6182342;23;20224;-79
2021/10/26 00:54:28;;;;;;;16.03;13.63;;;;;;;;;;6156831;23;20153;-79
2021/10/26 00:56:53;;;;;;;15.67;13.80;;;;;;;;;;6157345;23;20152;-80
2021/10/26 00:59:19;;;;;;;13.57;12.27;;;;;;;;;;6183811;23;20630;-79
2021/10/26 01:01:45;;;;;;;12.43;11.07;;;;;;;;;;6181200;23;20159;-79
2021/10/26 01:04:10;;;;;;;13.67;11.17;;;;;;;;;;6183383;23;20742;-79
2021/10/26 01:06:36;;;;;;;13.43;9.63;;;;;;;;;;6183355;23;20202;-80
2021/10/26 01:09:02;;;;;;;12.27;8.87;;;;;;;;;;6183798;23;20160;-80
2021/10/26 01:11:28;;;;;;;9.80;8.80;;;;;;;;;;6182477;23;20141;-79
2021/10/26 01:13:54;;;;;;;10.63;8.53;;;;;;;;;;6182384;23;20455;-80
2021/10/26 01:16:19;;;;;;;14.07;9.07;;;;;;;;;;6183363;23;20376;-79
2021/10/26 01:18:45;;;;;;;10.27;9.07;;;;;;;;;;6182058;23;20394;-79
2021/10/26 01:21:10;;;;;;;9.87;6.93;;;;;;;;;;6182786;23;20592;-79
2021/10/26 01:23:36;;;;;;;6.80;6.07;;;;;;;;;;6182196;23;20251;-79
2021/10/26 01:26:02;;;;;;;7.40;6.70;;;;;;;;;;6183196;23;20141;-80
2021/10/26 01:28:27;;;;;;;7.07;5.90;;;;;;;;;;6184008;23;20391;-80
2021/10/26 01:30:53;;;;;;;12.57;7.13;;;;;;;;;;6185457;23;20171;-79
2021/10/26 01:33:18;;;;;;;6.60;6.00;;;;;;;;;;6185479;23;20156;-79
2021/10/26 01:35:43;;;;;;;8.43;7.53;;;;;;;;;;6185917;23;20187;-80
2021/10/26 01:38:09;;;;;;;12.13;9.07;;;;;;;;;;6185157;23;20226;-79
2021/10/26 01:40:35;;;;;;;10.90;9.20;;;;;;;;;;6186011;23;20141;-79
2021/10/26 01:43:00;;;;;;;10.93;9.30;;;;;;;;;;6183847;23;20167;-80
2021/10/26 01:45:26;;;;;;;12.30;9.67;;;;;;;;;;6185586;23;20375;-79
2021/10/26 01:47:51;;;;;;;14.53;10.77;;;;;;;;;;6184833;23;20696;-80
2021/10/26 01:50:18;;;;;;;13.10;10.50;;;;;;;;;;6184703;23;20155;-80
2021/10/26 01:52:43;;;;;;;13.40;12.00;;;;;;;;;;6182105;23;20176;-80
2021/10/26 01:55:09;;;;;;;13.93;12.43;;;;;;;;;;6185693;23;20379;-80
2021/10/26 01:57:35;;;;;;;16.00;13.07;;;;;;;;;;6184792;23;20176;-79
2021/10/26 02:00:04;;;;;;;14.67;11.73;;;;;;;;;;6185487;23;20368;-79
2021/10/26 02:02:29;;;;;;;14.63;12.70;;;;;;;;;;6184740;23;20522;-79
2021/10/26 02:04:55;;;;;;;16.50;14.70;;;;;;;;;;6184903;23;20372;-79
2021/10/26 02:07:20;;;;;;;18.37;15.70;;;;;;;;;;6184156;23;20152;-79
2021/10/26 02:09:45;;;;;;;22.10;18.00;;;;;;;;;;6185193;23;20169;-79
2021/10/26 02:12:11;;;;;;;25.80;20.20;;;;;;;;;;6185037;23;20145;-79
2021/10/26 02:14:36;;;;;;;26.50;21.83;;;;;;;;;;6185629;23;20145;-79
2021/10/26 02:17:03;;;;;;;26.57;20.80;;;;;;;;;;6185872;23;20148;-80
2021/10/26 02:19:28;;;;;;;29.10;23.43;;;;;;;;;;6188530;23;20200;-80
2021/10/26 02:21:53;;;;;;;26.07;23.10;;;;;;;;;;6186502;23;20426;-80
2021/10/26 02:24:19;;;;;;;31.50;26.37;;;;;;;;;;6184249;23;20184;-80
2021/10/26 02:26:45;;;;;;;29.93;23.90;;;;;;;;;;6187866;23;20216;-79
2021/10/26 02:29:10;;;;;;;28.93;24.40;;;;;;;;;;6187230;23;20461;-80
2021/10/26 02:31:36;;;;;;;31.40;26.43;;;;;;;;;;6186639;23;20375;-79
2021/10/26 02:34:01;;;;;;;32.30;24.67;;;;;;;;;;6185581;23;20654;-80
2021/10/26 02:36:26;;;;;;;32.20;26.43;;;;;;;;;;6185549;23;20458;-79
2021/10/26 02:38:52;;;;;;;34.20;26.13;;;;;;;;;;6185877;23;20180;-79
2021/10/26 02:41:17;;;;;;;38.07;26.60;;;;;;;;;;6185721;23;20216;-79
2021/10/26 02:43:43;;;;;;;35.00;29.03;;;;;;;;;;6185629;23;20172;-79
2021/10/26 02:46:08;;;;;;;38.37;29.57;;;;;;;;;;6185730;23;20145;-79
2021/10/26 02:48:34;;;;;;;35.67;28.33;;;;;;;;;;6185969;23;20160;-80
2021/10/26 02:50:59;;;;;;;36.33;28.70;;;;;;;;;;6185719;23;20249;-79
2021/10/26 02:53:25;;;;;;;36.40;27.60;;;;;;;;;;6185059;23;20141;-80
2021/10/26 02:55:50;;;;;;;44.17;29.13;;;;;;;;;;6185612;23;20151;-79
2021/10/26 02:58:16;;;;;;;48.03;30.63;;;;;;;;;;6185513;23;20175;-79
2021/10/26 03:00:42;;;;;;;44.43;30.90;;;;;;;;;;6185038;23;20368;-79
2021/10/26 03:03:08;;;;;;;36.23;30.50;;;;;;;;;;6185328;23;20262;-79
2021/10/26 03:05:33;;;;;;;37.70;30.07;;;;;;;;;;6184412;23;20364;-79
2021/10/26 03:07:59;;;;;;;42.93;33.50;;;;;;;;;;6184941;23;20168;-80
2021/10/26 03:10:24;;;;;;;50.43;32.57;;;;;;;;;;6185709;23;20144;-79
2021/10/26 03:12:49;;;;;;;44.50;33.07;;;;;;;;;;6185396;23;20587;-79
2021/10/26 03:15:14;;;;;;;41.97;33.90;;;;;;;;;;6183577;23;20149;-79
2021/10/26 03:17:40;;;;;;;39.80;32.27;;;;;;;;;;6184305;23;20152;-79
2021/10/26 03:20:06;;;;;;;39.73;31.43;;;;;;;;;;6184978;23;20159;-79
2021/10/26 03:22:31;;;;;;;39.47;32.70;;;;;;;;;;6184620;23;20583;-79
2021/10/26 03:24:56;;;;;;;43.30;32.10;;;;;;;;;;6183149;23;20705;-79
2021/10/26 03:27:22;;;;;;;41.10;31.60;;;;;;;;;;6185500;23;20155;-79
2021/10/26 03:29:47;;;;;;;42.93;32.40;;;;;;;;;;6184734;23;20202;-79
2021/10/26 03:32:13;;;;;;;43.00;31.20;;;;;;;;;;6184411;23;20461;-79
2021/10/26 03:34:38;;;;;;;39.90;30.43;;;;;;;;;;6182906;23;20203;-79
2021/10/26 03:37:04;;;;;;;41.13;32.03;;;;;;;;;;6184632;23;20638;-79
2021/10/26 03:39:30;;;;;;;46.30;32.40;;;;;;;;;;6184493;23;20215;-79
2021/10/26 03:41:56;;;;;;;39.97;30.30;;;;;;;;;;6185632;23;20451;-80
2021/10/26 03:44:21;;;;;;;41.27;30.30;;;;;;;;;;6184537;23;20450;-79
2021/10/26 03:46:46;;;;;;;41.13;29.70;;;;;;;;;;6185054;23;20214;-80
2021/10/26 03:49:11;;;;;;;38.80;30.83;;;;;;;;;;6184075;23;20165;-79
2021/10/26 03:51:37;;;;;;;42.40;30.30;;;;;;;;;;6184784;23;20148;-80
2021/10/26 03:54:02;;;;;;;40.50;31.17;;;;;;;;;;6183593;23;20153;-80
2021/10/26 03:56:27;;;;;;;39.03;30.80;;;;;;;;;;6182549;23;20152;-78
2021/10/26 03:58:53;;;;;;;37.57;29.07;;;;;;;;;;6184942;23;20168;-80
2021/10/26 04:01:19;;;;;;;44.60;30.40;;;;;;;;;;6184444;23;20231;-79
2021/10/26 04:03:44;;;;;;;39.53;29.50;;;;;;;;;;6157114;23;20183;-79
2021/10/26 04:06:14;;;;;;;31.83;27.77;;;;;;;;;;6184802;23;20380;-80
2021/10/26 04:13:43;;;;;;;36.30;29.40;;;;;;;;;;6194335;23;20362;-80
2021/10/26 04:16:08;;;;;;;33.47;26.47;;;;;;;;;;6184537;23;20439;-80
2021/10/26 04:18:33;;;;;;;35.03;27.80;;;;;;;;;;6157867;23;20798;-80
2021/10/26 04:20:59;;;;;;;38.67;29.63;;;;;;;;;;6184806;23;20145;-80
2021/10/26 04:23:25;;;;;;;32.87;26.80;;;;;;;;;;6183686;23;20267;-81
2021/10/26 04:25:50;;;;;;;31.67;26.23;;;;;;;;;;6188381;23;20180;-81
2021/10/26 04:28:16;;;;;;;36.20;27.40;;;;;;;;;;6187959;23;20170;-81
2021/10/26 04:30:41;;;;;;;33.33;26.37;;;;;;;;;;6187854;23;20461;-80
2021/10/26 04:33:07;;;;;;;38.87;26.60;;;;;;;;;;6185505;23;20566;-80
2021/10/26 04:35:33;;;;;;;31.93;25.77;;;;;;;;;;6186880;23;20467;-81
2021/10/26 04:37:58;;;;;;;34.23;27.53;;;;;;;;;;6186011;23;20201;-80
2021/10/26 04:40:23;;;;;;;32.17;25.17;;;;;;;;;;6185387;23;20133;-80
2021/10/26 04:42:49;;;;;;;29.40;23.83;;;;;;;;;;6186040;23;20173;-80
2021/10/26 04:45:14;;;;;;;32.93;27.90;;;;;;;;;;6186001;23;20557;-80
2021/10/26 04:47:42;;;;;;;31.43;27.20;;;;;;;;;;6185178;23;20156;-80
2021/10/26 04:50:08;;;;;;;35.47;27.07;;;;;;;;;;6185299;23;20187;-80
2021/10/26 04:52:33;;;;;;;32.97;25.43;;;;;;;;;;6185216;23;20364;-80
2021/10/26 04:54:58;;;;;;;29.70;25.47;;;;;;;;;;6184535;23;20155;-80
2021/10/26 04:57:23;;;;;;;31.67;26.27;;;;;;;;;;6185412;23;20152;-80
2021/10/26 04:59:49;;;;;;;28.47;25.00;;;;;;;;;;6185279;23;20141;-80
2021/10/26 05:02:14;;;;;;;34.73;26.50;;;;;;;;;;6184744;23;20144;-80
2021/10/26 05:04:39;;;;;;;33.90;25.40;;;;;;;;;;6186453;23;20639;-80
2021/10/26 05:07:05;;;;;;;34.07;26.23;;;;;;;;;;6186203;23;20481;-79
2021/10/26 05:09:30;;;;;;;31.77;25.17;;;;;;;;;;6186469;23;20212;-80
2021/10/26 05:11:55;;;;;;;34.20;25.70;;;;;;;;;;6185714;23;20148;-80
2021/10/26 05:14:20;;;;;;;30.80;25.23;;;;;;;;;;6184179;23;20180;-80
2021/10/26 05:16:46;;;;;;;32.77;25.17;;;;;;;;;;6185797;23;20148;-80
2021/10/26 05:19:12;;;;;;;29.60;23.90;;;;;;;;;;6157667;23;20229;-79
2021/10/26 05:21:38;;;;;;;30.33;22.37;;;;;;;;;;6185629;23;21129;-79
2021/10/26 05:24:04;;;;;;;28.43;23.23;;;;;;;;;;6186793;23;20403;-80
2021/10/26 05:26:32;;;;;;;27.03;21.87;;;;;;;;;;6190453;23;20149;-81
2021/10/26 05:28:57;;;;;;;30.90;24.43;;;;;;;;;;6186862;23;20252;-80
2021/10/26 05:31:22;;;;;;;26.40;22.03;;;;;;;;;;6185721;23;20367;-80
2021/10/26 05:33:48;;;;;;;28.03;21.67;;;;;;;;;;6181643;23;20149;-81
2021/10/26 05:36:13;;;;;;;25.60;21.43;;;;;;;;;;6186016;23;20492;-81
2021/10/26 05:38:38;;;;;;;28.67;23.00;;;;;;;;;;6184707;23;20476;-79
2021/10/26 05:41:04;;;;;;;24.57;21.13;;;;;;;;;;6185188;23;20144;-80
2021/10/26 05:43:30;;;;;;;26.50;19.77;;;;;;;;;;6158313;23;20585;-80
2021/10/26 05:45:55;;;;;;;26.73;21.07;;;;;;;;;;6185801;23;20203;-82
2021/10/26 05:48:21;;;;;;;29.00;21.27;;;;;;;;;;6186128;23;20551;-80
2021/10/26 05:50:48;;;;;;;28.10;20.03;;;;;;;;;;6186145;23;20172;-81
2021/10/26 05:53:14;;;;;;;25.00;19.80;;;;;;;;;;6183676;23;20187;-80
2021/10/26 05:55:42;;;;;;;23.13;18.80;;;;;;;;;;6186484;23;20368;-81
2021/10/26 05:58:07;;;;;;;20.63;17.87;;;;;;;;;;6186380;23;20192;-82
2021/10/26 06:00:32;;;;;;;20.47;18.23;;;;;;;;;;6186099;23;20819;-81
2021/10/26 06:02:57;;;;;;;21.90;18.60;;;;;;;;;;6185321;23;20168;-81
2021/10/26 06:05:23;;;;;;;22.33;18.37;;;;;;;;;;6185732;23;20595;-80
2021/10/26 06:07:48;;;;;;;22.90;18.07;;;;;;;;;;6185462;23;20164;-80
2021/10/26 06:10:14;;;;;;;28.53;19.30;;;;;;;;;;6185511;23;20144;-81
2021/10/26 06:12:44;;;;;;;20.90;16.57;;;;;;;;;;6186252;23;20169;-81
2021/10/26 06:15:09;;;;;;;22.93;19.13;;;;;;;;;;6184038;23;20152;-80
2021/10/26 06:17:34;;;;;;;22.60;17.90;;;;;;;;;;6183597;23;20736;-79
2021/10/26 06:20:00;;;;;;;23.73;18.20;;;;;;;;;;6187862;23;20149;-80
2021/10/26 06:22:25;;;;;;;19.47;17.37;;;;;;;;;;6185890;23;20140;-80
2021/10/26 06:24:50;;;;;;;22.63;16.87;;;;;;;;;;6157401;23;20797;-79
2021/10/26 06:27:16;;;;;;;21.17;17.90;;;;;;;;;;6184382;23;20152;-78
2021/10/26 06:29:41;;;;;;;25.00;19.70;;;;;;;;;;6183572;23;20168;-78
2021/10/26 06:32:06;;;;;;;22.20;18.50;;;;;;;;;;6182877;23;20167;-78
2021/10/26 06:34:32;;;;;;;21.47;18.03;;;;;;;;;;6183478;23;20191;-78
2021/10/26 06:36:57;;;;;;;26.00;20.13;;;;;;;;;;6183651;23;20148;-77
2021/10/26 06:39:22;;;;;;;26.50;21.57;;;;;;;;;;6182686;23;20184;-76
2021/10/26 06:41:48;;;;;;;32.57;22.77;;;;;;;;;;6182941;23;20490;-78
2021/10/26 06:44:15;;;;;;;28.13;22.50;;;;;;;;;;6184702;23;20545;-79
2021/10/26 06:46:40;;;;;;;32.07;20.83;;;;;;;;;;6183792;23;21087;-77
2021/10/26 06:49:05;;;;;;;30.67;25.30;;;;;;;;;;6184883;23;20380;-79
2021/10/26 06:51:31;;;;;;;32.43;23.20;;;;;;;;;;6183699;23;20140;-78
2021/10/26 06:53:57;;;;;;;41.00;22.03;;;;;;;;;;6183369;23;20175;-77
2021/10/26 06:56:23;;;;;;;27.13;22.50;;;;;;;;;;6183454;23;20360;-78
2021/10/26 06:58:48;;;;;;;27.63;22.90;;;;;;;;;;6183564;23;20200;-78
2021/10/26 07:01:13;;;;;;;43.20;21.73;;;;;;;;;;6181748;23;20149;-77
2021/10/26 07:03:40;;;;;;;25.93;21.47;;;;;;;;;;6183009;23;20172;-79
2021/10/26 07:06:06;;;;;;;31.53;22.20;;;;;;;;;;6184974;23;20610;-78
2021/10/26 07:08:32;;;;;;;27.93;22.53;;;;;;;;;;6185122;23;20380;-78
2021/10/26 07:10:58;;;;;;;33.40;22.50;;;;;;;;;;6183273;23;20152;-78
2021/10/26 07:13:23;;;;;;;35.27;25.87;;;;;;;;;;6181919;23;20368;-77
2021/10/26 07:15:49;;;;;;;31.10;23.40;;;;;;;;;;6182665;23;20149;-78
2021/10/26 07:18:14;;;;;;;30.50;23.80;;;;;;;;;;6181274;23;20175;-78
2021/10/26 07:20:39;;;;;;;34.37;24.07;;;;;;;;;;6183459;23;20227;-77
2021/10/26 07:23:05;;;;;;;32.23;25.77;;;;;;;;;;6182531;23;20626;-78
2021/10/26 07:25:30;;;;;;;37.90;26.63;;;;;;;;;;6184107;23;20602;-78
2021/10/26 07:27:59;;;;;;;31.20;23.80;;;;;;;;;;6181367;23;20504;-78
2021/10/26 07:30:28;;;;;;;34.27;22.77;;;;;;;;;;6183392;23;20592;-78
2021/10/26 07:32:54;;;;;;;35.70;23.40;;;;;;;;;;6182928;23;20371;-76
2021/10/26 07:35:20;;;;;;;29.07;23.63;;;;;;;;;;6183190;23;20368;-78
2021/10/26 07:37:47;;;;;;;35.57;25.47;;;;;;;;;;6182179;23;20398;-78
2021/10/26 07:40:13;;;;;;;32.90;23.20;;;;;;;;;;6184246;23;20514;-78
2021/10/26 07:42:38;;;;;;;31.17;23.00;;;;;;;;;;6181507;23;20364;-77
2021/10/26 07:45:05;;;;;;;33.50;24.73;;;;;;;;;;6181775;23;20179;-78
2021/10/26 07:47:31;;;;;;;33.77;24.67;;;;;;;;;;6182489;23;20227;-79
2021/10/26 07:49:58;;;;;;;32.10;22.50;;;;;;;;;;6182023;23;20392;-78
2021/10/26 07:52:23;;;;;;;34.23;23.37;;;;;;;;;;6183227;23;20275;-77
2021/10/26 07:54:55;;;;;;;30.03;21.30;;;;;;;;;;6182028;23;20407;-78
2021/10/26 07:57:21;;;;;;;29.20;21.93;;;;;;;;;;6181527;23;20136;-79
2021/10/26 07:59:46;;;;;;;33.20;22.50;;;;;;;;;;6155643;23;20400;-78
2021/10/26 08:02:14;;;;;;;28.17;21.20;;;;;;;;;;6181313;23;20151;-78
2021/10/26 08:04:40;;;;;;;31.90;22.73;;;;;;;;;;6181338;23;20172;-77
2021/10/26 08:07:06;;;;;;;31.63;21.80;;;;;;;;;;6182671;23;20950;-78
2021/10/26 08:09:32;;;;;;;28.27;22.37;;;;;;;;;;6182528;23;20164;-78
2021/10/26 08:11:57;;;;;;;34.93;22.50;;;;;;;;;;6182236;23;20379;-77
2021/10/26 08:14:22;;;;;;;30.27;19.93;;;;;;;;;;6156735;23;20239;-77
2021/10/26 08:16:47;;;;;;;41.90;23.07;;;;;;;;;;6182645;23;20149;-77
2021/10/26 08:19:14;;;;;;;34.73;20.33;;;;;;;;;;6182523;23;20796;-78
2021/10/26 08:21:39;;;;;;;29.37;21.30;;;;;;;;;;6183181;23;20426;-77
2021/10/26 08:24:05;;;;;;;34.90;21.57;;;;;;;;;;6182730;23;20860;-78
2021/10/26 08:26:38;;;;;;;37.33;23.93;;;;;;;;;;6183141;23;20148;-76
2021/10/26 08:29:10;;;;;;;31.40;22.23;;;;;;;;;;6182624;23;20387;-77
2021/10/26 08:31:45;;;;;;;35.90;22.03;;;;;;;;;;6182106;23;20348;-78
2021/10/26 08:36:38;;;;;;;32.00;23.60;;;;;;;;;;6182410;23;20383;-78
2021/10/26 08:39:04;;;;;;;34.13;21.43;;;;;;;;;;6182602;23;20408;-78
2021/10/26 08:41:31;;;;;;;32.93;22.50;;;;;;;;;;6183320;23;20144;-79
2021/10/26 08:43:57;;;;;;;36.00;23.13;;;;;;;;;;6182815;23;20196;-79
2021/10/26 08:46:22;;;;;;;38.83;23.07;;;;;;;;;;6182223;23;20368;-77
2021/10/26 08:48:50;;;;;;;35.23;22.77;;;;;;;;;;6182678;23;20168;-78
2021/10/26 08:51:16;;;;;;;36.57;23.90;;;;;;;;;;6183400;23;20648;-78
2021/10/26 08:53:44;;;;;;;38.97;23.13;;;;;;;;;;6182719;23;20360;-79
2021/10/26 08:56:09;;;;;;;37.60;24.13;;;;;;;;;;6183384;23;20231;-78
2021/10/26 08:58:34;;;;;;;37.23;23.70;;;;;;;;;;6182718;23;20874;-78
2021/10/26 09:01:00;;;;;;;37.10;23.87;;;;;;;;;;6182767;23;20159;-78
2021/10/26 09:03:32;;;;;;;37.97;24.30;;;;;;;;;;6182237;23;20646;-78
2021/10/26 09:05:57;;;;;;;31.13;23.63;;;;;;;;;;6183928;23;20337;-79
2021/10/26 09:08:23;;;;;;;33.73;23.40;;;;;;;;;;6183196;23;20376;-79
2021/10/26 09:10:52;;;;;;;34.83;24.43;;;;;;;;;;6183588;23;20148;-78
2021/10/26 09:19:13;;;;;;;34.80;23.00;;;;;;;;;;6183461;23;20426;-77
2021/10/26 09:21:39;;;;;;;39.73;23.07;;;;;;;;;;6179837;23;20345;-78
2021/10/26 09:24:09;;;;;;;36.63;23.77;;;;;;;;;;6184525;23;20412;-78
2021/10/26 09:26:46;;;;;;;35.57;23.20;;;;;;;;;;6185156;23;20368;-78
2021/10/26 09:29:11;;;;;;;27.57;21.17;;;;;;;;;;6186078;23;20384;-80
2021/10/26 09:31:39;;;;;;;34.63;23.90;;;;;;;;;;6186065;23;20375;-79
2021/10/26 09:34:16;;;;;;;29.23;21.17;;;;;;;;;;6184052;23;20220;-79
2021/10/26 09:36:42;;;;;;;28.97;22.27;;;;;;;;;;6184476;23;20399;-79
2021/10/26 09:39:09;;;;;;;35.30;22.00;;;;;;;;;;6183992;23;20411;-79
2021/10/26 09:41:36;;;;;;;40.50;21.50;;;;;;;;;;6184748;23;20891;-79
2021/10/26 09:44:11;;;;;;;33.27;21.57;;;;;;;;;;6182973;23;20889;-77
2021/10/26 09:46:36;;;;;;;31.70;21.70;;;;;;;;;;6184212;23;20450;-78
2021/10/26 09:49:01;;;;;;;29.40;22.27;;;;;;;;;;6183692;23;20415;-79
2021/10/26 09:51:29;;;;;;;26.77;19.33;;;;;;;;;;6185564;23;20188;-78
2021/10/26 09:53:56;;;;;;;30.17;18.43;;;;;;;;;;6185372;23;20153;-79
2021/10/26 09:56:21;;;;;;;31.67;19.43;;;;;;;;;;6186796;23;20408;-79
2021/10/26 09:58:46;;;;;;;31.57;19.00;;;;;;;;;;6186600;23;20469;-79
2021/10/26 10:01:13;;;;;;;29.00;17.63;;;;;;;;;;6161109;23;20255;-80
2021/10/26 10:03:38;;;;;;;31.83;18.70;;;;;;;;;;6185088;23;20179;-79
2021/10/26 10:06:10;;;;;;;27.87;18.40;;;;;;;;;;6185217;23;20427;-79
2021/10/26 10:08:36;;;;;;;31.37;16.97;;;;;;;;;;6181956;23;20164;-79
2021/10/26 10:11:04;;;;;;;28.97;16.13;;;;;;;;;;6184938;23;20368;-80
2021/10/26 10:13:29;;;;;;;22.27;15.70;;;;;;;;;;6184839;23;20368;-80
2021/10/26 10:15:55;;;;;;;20.50;14.00;;;;;;;;;;6158879;23;20391;-80
2021/10/26 10:18:21;;;;;;;20.17;14.30;;;;;;;;;;6185165;23;20177;-79
2021/10/26 10:20:55;;;;;;;25.20;14.33;;;;;;;;;;6184980;23;20172;-80
2021/10/26 10:23:22;;;;;;;19.17;14.20;;;;;;;;;;6184963;23;20411;-80
2021/10/26 10:25:47;;;;;;;19.30;13.43;;;;;;;;;;6184823;23;20858;-79
2021/10/26 10:28:14;;;;;;;19.57;11.97;;;;;;;;;;6183836;23;20384;-80
2021/10/26 10:30:39;;;;;;;21.10;13.20;;;;;;;;;;6184729;23;20148;-79
2021/10/26 10:33:05;;;;;;;17.80;12.50;;;;;;;;;;6184549;23;20365;-80
2021/10/26 10:35:31;;;;;;;18.20;12.03;;;;;;;;;;6186050;23;20160;-79
2021/10/26 10:37:58;;;;;;;18.23;13.03;;;;;;;;;;6183167;23;20176;-79
2021/10/26 10:40:24;;;;;;;20.03;11.97;;;;;;;;;;6184152;23;20172;-79
2021/10/26 10:42:51;;;;;;;20.17;11.90;;;;;;;;;;6184287;23;20368;-80
2021/10/26 10:45:27;;;;;;;18.70;11.27;;;;;;;;;;6157995;23;20390;-80
2021/10/26 10:47:54;;;;;;;15.73;9.50;;;;;;;;;;6184876;23;20419;-80
2021/10/26 10:50:19;;;;;;;17.40;10.07;;;;;;;;;;6184068;23;20831;-79
2021/10/26 10:52:45;;;;;;;15.23;10.00;;;;;;;;;;6184319;23;20374;-80
2021/10/26 10:55:22;;;;;;;26.37;10.73;;;;;;;;;;6158865;23;20168;-80
2021/10/26 10:57:50;;;;;;;18.87;11.53;;;;;;;;;;6184556;23;20458;-79
2021/10/26 11:00:33;;;;;;;19.90;9.90;;;;;;;;;;6184267;23;20446;-80
2021/10/26 11:02:58;;;;;;;15.33;9.53;;;;;;;;;;6182749;23;20407;-80
2021/10/26 11:05:33;;;;;;;18.50;9.73;;;;;;;;;;6184054;23;20873;-78
2021/10/26 11:07:59;;;;;;;18.10;9.70;;;;;;;;;;6182223;23;20160;-80
2021/10/26 11:10:45;;;;;;;20.37;9.90;;;;;;;;;;6183027;23;20394;-79
2021/10/26 11:13:18;;;;;;;24.60;9.63;;;;;;;;;;6182563;23;20411;-78
2021/10/26 11:15:44;;;;;;;20.87;9.77;;;;;;;;;;6183319;23;20861;-78
2021/10/26 11:18:09;;;;;;;19.77;9.27;;;;;;;;;;6184146;23;20388;-80
2021/10/26 11:20:36;;;;;;;20.47;10.13;;;;;;;;;;6184341;23;20464;-79
2021/10/26 11:23:03;;;;;;;17.77;9.23;;;;;;;;;;6183227;23;20200;-80
2021/10/26 11:25:28;;;;;;;18.23;8.43;;;;;;;;;;6183935;23;20749;-80
2021/10/26 11:27:55;;;;;;;19.20;8.23;;;;;;;;;;6182865;23;20411;-80
2021/10/26 11:30:29;;;;;;;14.60;7.20;;;;;;;;;;6157298;23;20176;-80
2021/10/26 11:33:13;;;;;;;11.27;6.20;;;;;;;;;;6184134;23;20455;-80
2021/10/26 11:35:49;;;;;;;12.63;7.63;;;;;;;;;;6180841;23;20915;-79
2021/10/26 11:38:17;;;;;;;11.43;6.60;;;;;;;;;;6185150;23;20403;-80
2021/10/26 11:41:00;;;;;;;16.17;7.80;;;;;;;;;;6185763;23;20898;-80
2021/10/26 11:43:27;;;;;;;14.83;6.90;;;;;;;;;;6184615;23;20530;-80
2021/10/26 11:45:59;;;;;;;17.60;7.73;;;;;;;;;;6184790;23;20404;-79
2021/10/26 11:48:38;;;;;;;14.63;7.23;;;;;;;;;;6185710;23;20384;-79
2021/10/26 11:51:22;;;;;;;14.03;6.47;;;;;;;;;;6184050;23;20371;-80
2021/10/26 11:53:51;;;;;;;15.20;7.40;;;;;;;;;;6180736;23;20483;-79
2021/10/26 11:56:21;;;;;;;13.23;6.40;;;;;;;;;;6181749;23;20372;-80
2021/10/26 11:58:57;;;;;;;18.10;8.17;;;;;;;;;;6181823;23;20388;-79
2021/10/26 12:01:31;;;;;;;15.53;7.47;;;;;;;;;;6181435;23;20371;-79
2021/10/26 12:03:57;;;;;;;12.67;7.10;;;;;;;;;;6181713;23;20407;-80
2021/10/26 12:06:34;;;;;;;19.00;8.83;;;;;;;;;;6183746;23;20409;-79
2021/10/26 12:09:05;;;;;;;15.07;7.30;;;;;;;;;;6183613;23;20168;-80
2021/10/26 12:11:34;;;;;;;21.00;8.80;;;;;;;;;;6183862;23;20424;-79
2021/10/26 12:14:17;;;;;;;13.93;9.03;;;;;;;;;;6183420;23;20379;-79
2021/10/26 12:17:02;;;;;;;14.50;9.07;;;;;;;;;;6154874;23;20467;-80
2021/10/26 12:19:28;;;;;;;13.80;9.30;;;;;;;;;;6171288;23;20408;-79
2021/10/26 12:21:54;;;;;;;16.10;9.77;;;;;;;;;;6183604;23;20382;-80
2021/10/26 12:24:24;;;;;;;15.97;10.80;;;;;;;;;;6181801;23;20510;-79
2021/10/26 12:27:05;;;;;;;19.43;10.70;;;;;;;;;;6182831;23;20775;-80
2021/10/26 12:29:38;;;;;;;16.10;9.27;;;;;;;;;;6180815;23;20402;-79
2021/10/26 12:32:04;;;;;;;20.03;10.37;;;;;;;;;;6180964;23;20398;-79
2021/10/26 12:34:46;;;;;;;15.07;9.03;;;;;;;;;;6179602;23;20368;-80
2021/10/26 12:37:31;;;;;;;16.10;9.13;;;;;;;;;;6180506;23;20237;-78
2021/10/26 12:39:56;;;;;;;12.03;7.73;;;;;;;;;;6180815;23;20867;-79
2021/10/26 12:42:32;;;;;;;15.73;7.43;;;;;;;;;;6180113;23;20444;-80
2021/10/26 12:44:57;;;;;;;14.00;7.40;;;;;;;;;;6179516;23;20674;-79
2021/10/26 12:47:28;;;;;;;14.60;7.43;;;;;;;;;;6180057;23;20395;-78
2021/10/26 12:49:53;;;;;;;13.37;6.67;;;;;;;;;;6182341;23;20125;-79
2021/10/26 12:52:25;;;;;;;13.57;7.27;;;;;;;;;;6181131;23;20375;-78
2021/10/26 12:55:22;;;;;;;13.10;7.90;;;;;;;;;;6179941;23;20152;-79
2021/10/26 12:57:47;;;;;;;14.43;6.60;;;;;;;;;;6182047;23;21151;-78
2021/10/26 13:00:20;;;;;;;16.67;6.70;;;;;;;;;;6183150;23;20376;-79
2021/10/26 13:02:45;;;;;;;11.53;6.53;;;;;;;;;;6182453;23;20203;-78
2021/10/26 13:05:10;;;;;;;9.70;5.87;;;;;;;;;;6182574;23;20745;-78
2021/10/26 13:07:36;;;;;;;17.03;6.20;;;;;;;;;;6182498;23;20555;-78
2021/10/26 13:10:02;;;;;;;11.73;5.90;;;;;;;;;;6182761;23;20144;-79
2021/10/26 13:12:33;;;;;;;12.67;5.90;;;;;;;;;;6182881;23;20488;-79
2021/10/26 13:15:02;;;;;;;16.70;6.37;;;;;;;;;;6182320;23;20356;-78
2021/10/26 13:17:38;;;;;;;13.90;6.83;;;;;;;;;;6182701;23;20831;-79
2021/10/26 13:20:19;;;;;;;10.10;5.13;;;;;;;;;;6182734;23;20480;-78
2021/10/26 13:22:52;;;;;;;9.57;5.93;;;;;;;;;;6182517;23;20846;-78
2021/10/26 13:25:17;;;;;;;13.50;6.50;;;;;;;;;;6181499;23;20360;-79
2021/10/26 13:27:44;;;;;;;14.73;6.80;;;;;;;;;;6184177;23;20391;-79
2021/10/26 13:30:10;;;;;;;9.37;5.33;;;;;;;;;;6184813;23;20148;-79
2021/10/26 13:32:36;;;;;;;9.13;6.03;;;;;;;;;;6184766;23;20364;-78
2021/10/26 13:35:01;;;;;;;13.50;6.50;;;;;;;;;;6184786;23;20378;-79
2021/10/26 13:37:26;;;;;;;10.90;6.07;;;;;;;;;;6184535;23;20156;-79
2021/10/26 13:39:52;;;;;;;13.00;8.00;;;;;;;;;;6184835;23;20172;-79
2021/10/26 13:42:17;;;;;;;14.23;7.57;;;;;;;;;;6184652;23;20168;-78
2021/10/26 13:44:43;;;;;;;18.30;9.43;;;;;;;;;;6184306;23;20176;-79
2021/10/26 13:47:08;;;;;;;12.80;8.13;;;;;;;;;;6184558;23;20144;-78
2021/10/26 13:49:34;;;;;;;11.97;8.70;;;;;;;;;;6181964;23;20191;-78
2021/10/26 13:52:00;;;;;;;14.50;9.23;;;;;;;;;;6184294;23;20551;-77
2021/10/26 13:54:26;;;;;;;15.20;9.47;;;;;;;;;;6184028;23;20225;-79
2021/10/26 13:56:51;;;;;;;17.63;10.30;;;;;;;;;;6184735;23;20403;-79
2021/10/26 13:59:16;;;;;;;15.70;9.50;;;;;;;;;;6158577;23;20693;-77
2021/10/26 14:01:43;;;;;;;17.67;9.63;;;;;;;;;;6185086;23;20144;-78
2021/10/26 14:04:09;;;;;;;14.63;9.20;;;;;;;;;;6192144;22;20546;-73
2021/10/26 14:06:34;;;;;;;15.70;10.07;;;;;;;;;;6215475;23;20367;-73
2021/10/26 14:08:59;;;;;;;16.97;10.63;;;;;;;;;;6243756;23;20362;-73
2021/10/26 14:11:25;;;;;;;19.77;10.37;;;;;;;;;;6243885;23;20591;-73
2021/10/26 14:13:51;;;;;;;16.40;9.60;;;;;;;;;;6238613;23;20175;-73
2021/10/26 14:16:17;;;;;;;15.00;8.00;;;;;;;;;;6212405;23;20151;-73
2021/10/26 14:18:44;;;;;;;20.00;9.40;;;;;;;;;;6213307;23;20363;-74
2021/10/26 14:21:09;;;;;;;11.97;8.27;;;;;;;;;;6213460;23;20579;-73
2021/10/26 14:23:36;;;;;;;10.37;8.53;;;;;;;;;;6212341;23;20417;-73
2021/10/26 14:26:03;;;;;;;16.77;10.03;;;;;;;;;;6210166;23;20550;-74
2021/10/26 14:28:31;;;;;;;16.07;10.73;;;;;;;;;;6213558;23;20363;-73
2021/10/26 14:30:58;;;;;;;18.93;11.20;;;;;;;;;;6213142;23;20366;-73
2021/10/26 14:33:25;;;;;;;14.80;10.77;;;;;;;;;;6212663;23;20417;-73